Nocatee, FL

11:15 PM EST on March 04, 2015 (GMT -0500)
At the EOC | Change Station
CLOSE
Current Station
Personal Weather Station
Location: Arcadia, FL
Elevation: 50 ft
Nearby Weather Stations

Elev 50 ft 27.21 °N, 81.86 °W | Updated 39 seconds ago

Clear
Clear
71.1 °F
Feels Like 71 °F
N
3.3
Wind Variable Wind from ESE
Gusts 6.5 mph

Today
High -- | Low -- °F
--% Chance of Precip.
Yesterday
High -- | Low -- °F
Precip. -- in
6:48 AM 6:30 PM
Full, 100% visible
Pressure 30.12 in
Visibility 10.0 miles
Clouds Clear
Heat Index 71 °F
Dew Point 65 °F
Humidity 82%
Rainfall in
Snow Depth Not available.
UV 0 out of 12
Pollen 9.60 out of 12
Air Quality Not available.
Flu Activity Not available.
METAR KPGD 050353Z AUTO 13005KT 10SM CLR 20/18 A3012 RMK AO2 SLP198 T02000178

More Conditions Fewer Conditions

Pressure 30.12 in
Visibility 10.0 miles
Clouds Clear
Heat Index 71 °F
Dew Point 65 °F
Humidity 82%
Rainfall in
Snow Depth Not available.
UV 0 out of 12
Pollen 9.60 out of 12
Air Quality Not available.
Flu Activity Not available.
METAR KPGD 050353Z AUTO 13005KT 10SM CLR 20/18 A3012 RMK AO2 SLP198 T02000178

More Conditions Fewer Conditions

10-Day Weather Forecast

Almanac

Astronomy

Mar. 04, 2015 Rise Set
Actual Time
Civil Twilight
Nautical Twilight
Astronomical Twilight
Moon
Length of Visible Light
Length of Day
Tomorrow will be .
, % of the Moon is Illuminated

Today's Extremes

State Highs State Lows

Community

WunderPhotos

Upload Photos

1,802,674 photos uploaded!

WunderBlogs® & News

Nearby

Air Quality

  Air Quality AQ Index Pollutant
Not available.

Snow Depth

Station Depth Elevation

Earthquake Activity

City Distance Mag. Time & Date
Minimum magnitude displayed is 2.5.

Coastal Water Temperatures

Place Temperature

Nearby Weather Stations